sensor_id;sensor_type;location;lat;lon;timestamp;pressure;altitude;pressure_sealevel;temperature;humidity
63339;BME280;47485;51.378;-1.342;2022-12-07T00:01:20;101009.71;;;4.89;31.54
63339;BME280;47485;51.378;-1.342;2022-12-07T00:03:49;101008.49;;;5.42;31.08
63339;BME280;47485;51.378;-1.342;2022-12-07T00:06:17;101008.89;;;6.08;30.67
63339;BME280;47485;51.378;-1.342;2022-12-07T00:08:45;101009.22;;;5.73;30.63
63339;BME280;47485;51.378;-1.342;2022-12-07T00:11:14;101007.11;;;7.27;30.15
63339;BME280;47485;51.378;-1.342;2022-12-07T00:13:41;101009.84;;;5.64;30.35
63339;BME280;47485;51.378;-1.342;2022-12-07T00:16:10;101010.12;;;5.75;31.60
63339;BME280;47485;51.378;-1.342;2022-12-07T00:18:38;101010.68;;;4.37;31.72
63339;BME280;47485;51.378;-1.342;2022-12-07T00:21:08;101005.75;;;5.14;30.14
63339;BME280;47485;51.378;-1.342;2022-12-07T00:23:36;101004.17;;;5.28;30.28
63339;BME280;47485;51.378;-1.342;2022-12-07T00:26:05;101002.30;;;5.83;29.84
63339;BME280;47485;51.378;-1.342;2022-12-07T00:28:32;100998.62;;;4.71;31.04
63339;BME280;47485;51.378;-1.342;2022-12-07T00:31:02;100998.87;;;4.42;31.60
63339;BME280;47485;51.378;-1.342;2022-12-07T00:33:29;101003.31;;;4.23;32.07
63339;BME280;47485;51.378;-1.342;2022-12-07T00:35:56;101003.75;;;4.91;32.13
63339;BME280;47485;51.378;-1.342;2022-12-07T00:38:24;101000.96;;;4.54;32.48
63339;BME280;47485;51.378;-1.342;2022-12-07T00:40:56;100992.40;;;5.21;31.95
63339;BME280;47485;51.378;-1.342;2022-12-07T00:43:23;100993.19;;;4.71;31.67
63339;BME280;47485;51.378;-1.342;2022-12-07T00:45:50;100992.54;;;5.84;30.78
63339;BME280;47485;51.378;-1.342;2022-12-07T00:48:17;100991.68;;;4.25;31.32
63339;BME280;47485;51.378;-1.342;2022-12-07T00:50:44;100989.12;;;5.27;31.21
63339;BME280;47485;51.378;-1.342;2022-12-07T00:53:12;100986.99;;;4.61;31.06
63339;BME280;47485;51.378;-1.342;2022-12-07T00:55:39;100983.93;;;4.60;31.43
63339;BME280;47485;51.378;-1.342;2022-12-07T00:58:07;100981.09;;;5.01;31.15
63339;BME280;47485;51.378;-1.342;2022-12-07T01:00:36;100980.43;;;5.31;30.79
63339;BME280;47485;51.378;-1.342;2022-12-07T01:03:03;100983.01;;;3.85;32.09
63339;BME280;47485;51.378;-1.342;2022-12-07T01:05:31;100982.14;;;5.08;30.61
63339;BME280;47485;51.378;-1.342;2022-12-07T01:07:57;100981.84;;;3.85;31.08
63339;BME280;47485;51.378;-1.342;2022-12-07T01:10:26;100979.46;;;5.67;29.94
63339;BME280;47485;51.378;-1.342;2022-12-07T01:12:53;100979.30;;;6.95;29.66
63339;BME280;47485;51.378;-1.342;2022-12-07T01:15:20;100978.07;;;3.79;31.39
63339;BME280;47485;51.378;-1.342;2022-12-07T01:17:47;100974.99;;;3.85;31.38
63339;BME280;47485;51.378;-1.342;2022-12-07T01:20:14;100972.77;;;2.01;33.94
63339;BME280;47485;51.378;-1.342;2022-12-07T01:22:41;100970.96;;;1.45;32.68
63339;BME280;47485;51.378;-1.342;2022-12-07T01:25:10;100967.26;;;5.40;30.01
63339;BME280;47485;51.378;-1.342;2022-12-07T01:27:37;100971.88;;;1.06;33.48
63339;BME280;47485;51.378;-1.342;2022-12-07T01:30:07;100967.02;;;5.12;30.88
63339;BME280;47485;51.378;-1.342;2022-12-07T01:32:34;100974.24;;;-0.12;35.09
63339;BME280;47485;51.378;-1.342;2022-12-07T01:35:01;100974.90;;;-1.02;34.59
63339;BME280;47485;51.378;-1.342;2022-12-07T01:37:27;100970.66;;;1.01;32.49
63339;BME280;47485;51.378;-1.342;2022-12-07T01:39:54;100972.18;;;2.62;32.62
63339;BME280;47485;51.378;-1.342;2022-12-07T01:42:20;100966.07;;;2.83;32.13
63339;BME280;47485;51.378;-1.342;2022-12-07T01:45:36;100966.75;;;1.38;33.88
63339;BME280;47485;51.378;-1.342;2022-12-07T01:48:05;100961.79;;;3.66;31.29
63339;BME280;47485;51.378;-1.342;2022-12-07T01:50:34;100961.75;;;3.52;29.80
63339;BME280;47485;51.378;-1.342;2022-12-07T01:53:03;100961.99;;;2.07;32.70
63339;BME280;47485;51.378;-1.342;2022-12-07T01:55:32;100960.71;;;5.06;30.47
63339;BME280;47485;51.378;-1.342;2022-12-07T01:57:59;100961.16;;;4.93;29.75
63339;BME280;47485;51.378;-1.342;2022-12-07T02:00:26;100963.94;;;3.23;30.86
63339;BME280;47485;51.378;-1.342;2022-12-07T02:02:55;100963.57;;;1.40;31.58
63339;BME280;47485;51.378;-1.342;2022-12-07T02:05:24;100960.21;;;5.07;28.62
63339;BME280;47485;51.378;-1.342;2022-12-07T02:07:53;100961.42;;;4.62;29.16
63339;BME280;47485;51.378;-1.342;2022-12-07T02:10:24;100960.51;;;6.90;27.36
63339;BME280;47485;51.378;-1.342;2022-12-07T02:12:55;100967.59;;;4.43;29.26
63339;BME280;47485;51.378;-1.342;2022-12-07T02:15:27;100966.00;;;4.13;29.20
63339;BME280;47485;51.378;-1.342;2022-12-07T02:18:00;100962.06;;;4.56;28.66
63339;BME280;47485;51.378;-1.342;2022-12-07T02:20:33;100962.88;;;6.00;28.37
63339;BME280;47485;51.378;-1.342;2022-12-07T02:25:37;100962.50;;;5.54;29.43
63339;BME280;47485;51.378;-1.342;2022-12-07T02:28:18;100961.71;;;4.84;30.19
63339;BME280;47485;51.378;-1.342;2022-12-07T02:30:49;100966.82;;;4.25;30.53
63339;BME280;47485;51.378;-1.342;2022-12-07T02:33:21;100967.65;;;4.38;29.50
63339;BME280;47485;51.378;-1.342;2022-12-07T02:35:55;100958.33;;;4.62;28.34
63339;BME280;47485;51.378;-1.342;2022-12-07T02:38:30;100966.19;;;5.35;29.40
63339;BME280;47485;51.378;-1.342;2022-12-07T02:41:03;100959.08;;;5.34;28.91
63339;BME280;47485;51.378;-1.342;2022-12-07T02:43:33;100959.06;;;4.34;28.04
63339;BME280;47485;51.378;-1.342;2022-12-07T02:46:13;100954.47;;;6.14;27.50
63339;BME280;47485;51.378;-1.342;2022-12-07T02:48:41;100950.97;;;4.92;27.91
63339;BME280;47485;51.378;-1.342;2022-12-07T02:51:09;100951.79;;;4.42;28.73
63339;BME280;47485;51.378;-1.342;2022-12-07T02:53:38;100950.03;;;3.73;28.15
63339;BME280;47485;51.378;-1.342;2022-12-07T02:56:10;100955.67;;;0.71;30.78
63339;BME280;47485;51.378;-1.342;2022-12-07T02:58:51;100952.52;;;1.24;31.45
63339;BME280;47485;51.378;-1.342;2022-12-07T03:01:28;100954.44;;;2.32;29.83
63339;BME280;47485;51.378;-1.342;2022-12-07T03:04:06;100948.56;;;3.64;28.82
63339;BME280;47485;51.378;-1.342;2022-12-07T03:06:42;100940.47;;;3.97;28.83
63339;BME280;47485;51.378;-1.342;2022-12-07T03:09:15;100945.70;;;0.29;33.52
63339;BME280;47485;51.378;-1.342;2022-12-07T03:11:49;100944.72;;;2.39;32.52
63339;BME280;47485;51.378;-1.342;2022-12-07T03:14:20;100943.49;;;3.69;29.28
63339;BME280;47485;51.378;-1.342;2022-12-07T03:16:52;100947.95;;;0.21;32.00
63339;BME280;47485;51.378;-1.342;2022-12-07T03:19:22;100949.33;;;4.76;29.37
63339;BME280;47485;51.378;-1.342;2022-12-07T03:21:54;100947.19;;;4.05;29.19
63339;BME280;47485;51.378;-1.342;2022-12-07T03:24:27;100950.78;;;0.91;31.69
63339;BME280;47485;51.378;-1.342;2022-12-07T03:26:58;100940.54;;;6.35;28.19
63339;BME280;47485;51.378;-1.342;2022-12-07T03:29:30;100944.82;;;5.36;29.11
63339;BME280;47485;51.378;-1.342;2022-12-07T03:32:02;100948.11;;;3.86;30.48
63339;BME280;47485;51.378;-1.342;2022-12-07T03:34:36;100941.17;;;3.32;30.26
63339;BME280;47485;51.378;-1.342;2022-12-07T03:37:12;100946.14;;;0.04;33.54
63339;BME280;47485;51.378;-1.342;2022-12-07T03:39:45;100941.60;;;3.54;30.97
63339;BME280;47485;51.378;-1.342;2022-12-07T03:42:13;100941.28;;;4.10;31.63
63339;BME280;47485;51.378;-1.342;2022-12-07T03:44:41;100939.44;;;4.02;31.47
63339;BME280;47485;51.378;-1.342;2022-12-07T03:47:13;100941.83;;;3.52;31.23
63339;BME280;47485;51.378;-1.342;2022-12-07T03:49:45;100936.64;;;1.25;32.52
63339;BME280;47485;51.378;-1.342;2022-12-07T03:52:21;100930.75;;;3.50;31.09
63339;BME280;47485;51.378;-1.342;2022-12-07T03:54:55;100927.06;;;5.33;30.38
63339;BME280;47485;51.378;-1.342;2022-12-07T03:57:24;100928.90;;;3.12;32.06
63339;BME280;47485;51.378;-1.342;2022-12-07T03:59:54;100923.02;;;4.51;30.51
63339;BME280;47485;51.378;-1.342;2022-12-07T04:02:23;100925.84;;;1.58;31.78
63339;BME280;47485;51.378;-1.342;2022-12-07T04:04:51;100921.67;;;3.87;28.68
63339;BME280;47485;51.378;-1.342;2022-12-07T04:07:18;100921.50;;;5.85;28.15
63339;BME280;47485;51.378;-1.342;2022-12-07T04:09:46;100925.11;;;5.43;28.83
63339;BME280;47485;51.378;-1.342;2022-12-07T04:12:12;100926.44;;;5.42;29.38
63339;BME280;47485;51.378;-1.342;2022-12-07T04:14:39;100921.95;;;4.60;30.06
63339;BME280;47485;51.378;-1.342;2022-12-07T04:17:06;100921.71;;;3.61;30.56
63339;BME280;47485;51.378;-1.342;2022-12-07T04:19:34;100924.28;;;3.30;30.77
63339;BME280;47485;51.378;-1.342;2022-12-07T04:22:01;100925.94;;;2.84;30.60
63339;BME280;47485;51.378;-1.342;2022-12-07T04:24:29;100922.16;;;3.60;29.94
63339;BME280;47485;51.378;-1.342;2022-12-07T04:26:56;100922.63;;;5.82;28.78
63339;BME280;47485;51.378;-1.342;2022-12-07T04:29:23;100924.92;;;4.97;28.89
63339;BME280;47485;51.378;-1.342;2022-12-07T04:31:50;100922.56;;;3.26;29.55
63339;BME280;47485;51.378;-1.342;2022-12-07T04:34:17;100919.20;;;4.42;28.73
63339;BME280;47485;51.378;-1.342;2022-12-07T04:36:45;100915.65;;;4.07;28.24
63339;BME280;47485;51.378;-1.342;2022-12-07T04:39:19;100915.31;;;5.71;27.26
63339;BME280;47485;51.378;-1.342;2022-12-07T04:41:46;100920.89;;;4.33;28.78
63339;BME280;47485;51.378;-1.342;2022-12-07T04:44:13;100913.40;;;5.83;27.11
63339;BME280;47485;51.378;-1.342;2022-12-07T04:46:42;100914.69;;;5.17;27.60
63339;BME280;47485;51.378;-1.342;2022-12-07T04:49:10;100912.69;;;5.81;27.44
63339;BME280;47485;51.378;-1.342;2022-12-07T04:51:37;100909.42;;;5.00;27.61
63339;BME280;47485;51.378;-1.342;2022-12-07T04:54:04;100906.67;;;5.93;27.28
63339;BME280;47485;51.378;-1.342;2022-12-07T04:56:31;100913.58;;;3.96;28.53
63339;BME280;47485;51.378;-1.342;2022-12-07T04:58:58;100912.54;;;6.31;27.28
63339;BME280;47485;51.378;-1.342;2022-12-07T05:01:24;100917.89;;;2.90;29.06
63339;BME280;47485;51.378;-1.342;2022-12-07T05:03:51;100916.86;;;0.38;31.95
63339;BME280;47485;51.378;-1.342;2022-12-07T05:06:18;100923.48;;;-1.58;34.81
63339;BME280;47485;51.378;-1.342;2022-12-07T05:08:45;100915.06;;;-0.80;36.04
63339;BME280;47485;51.378;-1.342;2022-12-07T05:11:13;100909.97;;;0.12;33.77
63339;BME280;47485;51.378;-1.342;2022-12-07T05:13:40;100910.33;;;-1.91;35.55
63339;BME280;47485;51.378;-1.342;2022-12-07T05:16:08;100910.11;;;-5.14;38.84
63339;BME280;47485;51.378;-1.342;2022-12-07T05:18:35;100910.35;;;-3.03;37.53
63339;BME280;47485;51.378;-1.342;2022-12-07T05:21:02;100914.45;;;-6.53;41.98
63339;BME280;47485;51.378;-1.342;2022-12-07T05:23:29;100914.03;;;-6.53;42.99
63339;BME280;47485;51.378;-1.342;2022-12-07T05:25:56;100914.36;;;-6.26;43.07
63339;BME280;47485;51.378;-1.342;2022-12-07T05:28:23;100911.21;;;-6.61;43.12
63339;BME280;47485;51.378;-1.342;2022-12-07T05:30:49;100908.14;;;-5.98;41.84
63339;BME280;47485;51.378;-1.342;2022-12-07T05:33:17;100909.82;;;-5.23;41.23
63339;BME280;47485;51.378;-1.342;2022-12-07T05:35:45;100914.30;;;-5.42;41.17
63339;BME280;47485;51.378;-1.342;2022-12-07T05:38:12;100915.16;;;-4.45;41.69
63339;BME280;47485;51.378;-1.342;2022-12-07T05:40:40;100917.29;;;-2.25;39.34
63339;BME280;47485;51.378;-1.342;2022-12-07T05:43:07;100924.06;;;-4.17;42.34
63339;BME280;47485;51.378;-1.342;2022-12-07T05:45:34;100918.50;;;-3.99;39.87
63339;BME280;47485;51.378;-1.342;2022-12-07T05:48:01;100910.27;;;-0.78;36.31
63339;BME280;47485;51.378;-1.342;2022-12-07T05:50:27;100902.34;;;-0.21;34.21
63339;BME280;47485;51.378;-1.342;2022-12-07T05:52:54;100903.08;;;2.53;31.34
63339;BME280;47485;51.378;-1.342;2022-12-07T05:55:21;100896.45;;;2.14;30.32
63339;BME280;47485;51.378;-1.342;2022-12-07T05:57:48;100893.31;;;4.43;29.32
63339;BME280;47485;51.378;-1.342;2022-12-07T06:00:15;100895.26;;;-0.19;32.22
63339;BME280;47485;51.378;-1.342;2022-12-07T06:02:42;100890.20;;;4.60;28.64
63339;BME280;47485;51.378;-1.342;2022-12-07T06:05:09;100893.05;;;2.15;29.19
63339;BME280;47485;51.378;-1.342;2022-12-07T06:07:36;100895.67;;;3.12;28.98
63339;BME280;47485;51.378;-1.342;2022-12-07T06:10:03;100895.70;;;4.36;28.32
63339;BME280;47485;51.378;-1.342;2022-12-07T06:12:29;100892.14;;;4.64;27.51
63339;BME280;47485;51.378;-1.342;2022-12-07T06:14:56;100889.97;;;3.62;27.54
63339;BME280;47485;51.378;-1.342;2022-12-07T06:17:24;100878.76;;;5.48;26.63
63339;BME280;47485;51.378;-1.342;2022-12-07T06:19:51;100880.14;;;4.85;26.58
63339;BME280;47485;51.378;-1.342;2022-12-07T06:22:19;100880.79;;;4.33;27.40
63339;BME280;47485;51.378;-1.342;2022-12-07T06:24:46;100885.78;;;4.70;26.95
63339;BME280;47485;51.378;-1.342;2022-12-07T06:27:12;100885.45;;;5.32;27.75
63339;BME280;47485;51.378;-1.342;2022-12-07T06:29:39;100887.32;;;4.40;27.69
63339;BME280;47485;51.378;-1.342;2022-12-07T06:32:07;100892.63;;;5.51;27.47
63339;BME280;47485;51.378;-1.342;2022-12-07T06:34:34;100897.00;;;4.84;28.15
63339;BME280;47485;51.378;-1.342;2022-12-07T06:37:01;100896.23;;;4.72;27.78
63339;BME280;47485;51.378;-1.342;2022-12-07T06:39:29;100899.54;;;1.84;31.26
63339;BME280;47485;51.378;-1.342;2022-12-07T06:41:56;100902.60;;;2.01;30.13
63339;BME280;47485;51.378;-1.342;2022-12-07T06:44:24;100896.29;;;4.02;28.80
63339;BME280;47485;51.378;-1.342;2022-12-07T06:46:51;100896.59;;;2.87;28.64
63339;BME280;47485;51.378;-1.342;2022-12-07T06:49:17;100891.65;;;5.49;27.35
63339;BME280;47485;51.378;-1.342;2022-12-07T06:51:44;100895.37;;;2.78;28.64
63339;BME280;47485;51.378;-1.342;2022-12-07T06:54:17;100888.36;;;6.14;26.62
63339;BME280;47485;51.378;-1.342;2022-12-07T06:56:43;100889.73;;;5.33;27.32
63339;BME280;47485;51.378;-1.342;2022-12-07T06:59:10;100898.06;;;4.91;27.87
63339;BME280;47485;51.378;-1.342;2022-12-07T07:01:37;100904.51;;;4.55;29.79
63339;BME280;47485;51.378;-1.342;2022-12-07T07:04:04;100905.05;;;2.60;30.51
63339;BME280;47485;51.378;-1.342;2022-12-07T07:06:30;100906.46;;;-0.07;32.35
63339;BME280;47485;51.378;-1.342;2022-12-07T07:08:57;100894.31;;;3.96;29.62
63339;BME280;47485;51.378;-1.342;2022-12-07T07:11:24;100894.80;;;3.21;28.84
63339;BME280;47485;51.378;-1.342;2022-12-07T07:13:51;100893.38;;;4.94;28.52
63339;BME280;47485;51.378;-1.342;2022-12-07T07:16:17;100893.26;;;4.61;28.66
63339;BME280;47485;51.378;-1.342;2022-12-07T07:18:45;100891.48;;;3.36;28.87
63339;BME280;47485;51.378;-1.342;2022-12-07T07:21:11;100896.95;;;4.08;29.63
63339;BME280;47485;51.378;-1.342;2022-12-07T07:23:38;100896.13;;;3.41;30.10
63339;BME280;47485;51.378;-1.342;2022-12-07T07:26:05;100899.45;;;4.00;30.05
63339;BME280;47485;51.378;-1.342;2022-12-07T07:28:32;100899.29;;;3.94;29.97
63339;BME280;47485;51.378;-1.342;2022-12-07T07:30:59;100902.66;;;3.43;29.97
63339;BME280;47485;51.378;-1.342;2022-12-07T07:33:26;100901.33;;;3.74;29.65
63339;BME280;47485;51.378;-1.342;2022-12-07T07:35:52;100901.88;;;4.42;29.45
63339;BME280;47485;51.378;-1.342;2022-12-07T07:38:19;100904.43;;;3.94;29.45
63339;BME280;47485;51.378;-1.342;2022-12-07T07:40:45;100899.76;;;4.18;29.24
63339;BME280;47485;51.378;-1.342;2022-12-07T07:43:12;100902.42;;;2.31;29.78
63339;BME280;47485;51.378;-1.342;2022-12-07T07:45:38;100905.09;;;3.56;29.59
63339;BME280;47485;51.378;-1.342;2022-12-07T07:48:06;100903.70;;;4.76;28.86
63339;BME280;47485;51.378;-1.342;2022-12-07T07:50:32;100902.07;;;3.27;29.66
63339;BME280;47485;51.378;-1.342;2022-12-07T07:52:59;100900.63;;;4.36;28.50
63339;BME280;47485;51.378;-1.342;2022-12-07T07:55:26;100897.76;;;3.63;28.96
63339;BME280;47485;51.378;-1.342;2022-12-07T07:57:53;100900.67;;;3.33;29.55
63339;BME280;47485;51.378;-1.342;2022-12-07T08:00:22;100899.19;;;1.91;30.79
63339;BME280;47485;51.378;-1.342;2022-12-07T08:02:50;100896.70;;;1.53;31.65
63339;BME280;47485;51.378;-1.342;2022-12-07T08:05:17;100909.76;;;1.96;32.03
63339;BME280;47485;51.378;-1.342;2022-12-07T08:07:43;100912.16;;;1.59;32.90
63339;BME280;47485;51.378;-1.342;2022-12-07T08:10:12;100914.49;;;1.05;33.90
63339;BME280;47485;51.378;-1.342;2022-12-07T08:12:41;100914.05;;;0.37;33.24
63339;BME280;47485;51.378;-1.342;2022-12-07T08:15:10;100913.07;;;1.49;33.12
63339;BME280;47485;51.378;-1.342;2022-12-07T08:17:36;100911.73;;;2.57;32.66
63339;BME280;47485;51.378;-1.342;2022-12-07T08:20:05;100914.97;;;1.51;33.45
63339;BME280;47485;51.378;-1.342;2022-12-07T08:22:32;100917.47;;;2.05;33.85
63339;BME280;47485;51.378;-1.342;2022-12-07T08:24:58;100913.03;;;2.99;33.01
63339;BME280;47485;51.378;-1.342;2022-12-07T08:27:26;100909.83;;;3.07;32.52
63339;BME280;47485;51.378;-1.342;2022-12-07T08:29:53;100913.45;;;2.12;32.62
63339;BME280;47485;51.378;-1.342;2022-12-07T08:32:19;100911.10;;;1.94;31.12
63339;BME280;47485;51.378;-1.342;2022-12-07T08:34:46;100912.16;;;3.71;30.02
63339;BME280;47485;51.378;-1.342;2022-12-07T08:37:13;100910.45;;;3.20;29.41
63339;BME280;47485;51.378;-1.342;2022-12-07T08:39:39;100908.23;;;4.01;29.56
63339;BME280;47485;51.378;-1.342;2022-12-07T08:42:07;100913.08;;;3.37;29.78
63339;BME280;47485;51.378;-1.342;2022-12-07T08:44:33;100914.44;;;2.82;30.57
63339;BME280;47485;51.378;-1.342;2022-12-07T08:47:03;100921.69;;;3.20;31.28
63339;BME280;47485;51.378;-1.342;2022-12-07T08:49:33;100920.60;;;3.68;31.36
63339;BME280;47485;51.378;-1.342;2022-12-07T08:52:01;100913.19;;;2.44;31.95
63339;BME280;47485;51.378;-1.342;2022-12-07T08:54:30;100911.76;;;2.14;32.65
63339;BME280;47485;51.378;-1.342;2022-12-07T08:56:59;100914.66;;;2.49;32.43
63339;BME280;47485;51.378;-1.342;2022-12-07T08:59:27;100915.41;;;2.32;32.62
63339;BME280;47485;51.378;-1.342;2022-12-07T09:01:55;100915.73;;;3.32;32.27
63339;BME280;47485;51.378;-1.342;2022-12-07T09:04:22;100912.00;;;2.45;31.93
63339;BME280;47485;51.378;-1.342;2022-12-07T09:06:49;100910.42;;;2.41;31.56
63339;BME280;47485;51.378;-1.342;2022-12-07T09:09:17;100911.40;;;2.40;31.48
63339;BME280;47485;51.378;-1.342;2022-12-07T09:11:43;100911.32;;;2.19;31.74
63339;BME280;47485;51.378;-1.342;2022-12-07T09:14:11;100914.72;;;2.59;31.33
63339;BME280;47485;51.378;-1.342;2022-12-07T09:16:38;100914.27;;;2.46;31.40
63339;BME280;47485;51.378;-1.342;2022-12-07T09:19:06;100911.64;;;2.19;31.13
63339;BME280;47485;51.378;-1.342;2022-12-07T09:21:34;100913.62;;;2.66;31.52
63339;BME280;47485;51.378;-1.342;2022-12-07T09:24:01;100914.15;;;2.17;31.93
63339;BME280;47485;51.378;-1.342;2022-12-07T09:26:28;100913.12;;;3.41;31.98
63339;BME280;47485;51.378;-1.342;2022-12-07T09:28:55;100916.63;;;2.08;31.75
63339;BME280;47485;51.378;-1.342;2022-12-07T09:31:21;100917.93;;;0.97;33.59
63339;BME280;47485;51.378;-1.342;2022-12-07T09:33:54;100917.70;;;1.01;33.37
63339;BME280;47485;51.378;-1.342;2022-12-07T09:36:21;100921.90;;;0.75;34.54
63339;BME280;47485;51.378;-1.342;2022-12-07T09:38:48;100921.45;;;0.64;35.81
63339;BME280;47485;51.378;-1.342;2022-12-07T09:41:14;100919.52;;;0.30;35.92
63339;BME280;47485;51.378;-1.342;2022-12-07T09:43:42;100915.43;;;0.79;36.41
63339;BME280;47485;51.378;-1.342;2022-12-07T09:46:13;100912.02;;;1.30;36.01
63339;BME280;47485;51.378;-1.342;2022-12-07T09:48:42;100911.00;;;0.88;36.51
63339;BME280;47485;51.378;-1.342;2022-12-07T09:51:15;100916.29;;;0.53;37.40
63339;BME280;47485;51.378;-1.342;2022-12-07T09:53:42;100915.53;;;0.70;37.98
63339;BME280;47485;51.378;-1.342;2022-12-07T09:56:11;100916.89;;;0.32;36.49
63339;BME280;47485;51.378;-1.342;2022-12-07T09:58:39;100915.11;;;-0.57;36.52
63339;BME280;47485;51.378;-1.342;2022-12-07T10:01:12;100919.79;;;1.18;36.21
63339;BME280;47485;51.378;-1.342;2022-12-07T10:03:43;100923.28;;;0.13;36.60
63339;BME280;47485;51.378;-1.342;2022-12-07T10:06:12;100915.36;;;0.89;35.25
63339;BME280;47485;51.378;-1.342;2022-12-07T10:08:39;100910.77;;;1.47;33.79
63339;BME280;47485;51.378;-1.342;2022-12-07T10:11:08;100906.93;;;2.42;33.81
63339;BME280;47485;51.378;-1.342;2022-12-07T10:13:41;100906.80;;;1.13;33.92
63339;BME280;47485;51.378;-1.342;2022-12-07T10:16:31;100913.03;;;1.04;35.48
63339;BME280;47485;51.378;-1.342;2022-12-07T10:19:18;100910.86;;;-0.30;36.86
63339;BME280;47485;51.378;-1.342;2022-12-07T10:22:00;100909.59;;;0.90;36.79
63339;BME280;47485;51.378;-1.342;2022-12-07T10:24:26;100900.75;;;0.74;35.63
63339;BME280;47485;51.378;-1.342;2022-12-07T10:26:54;100898.04;;;0.96;34.28
63339;BME280;47485;51.378;-1.342;2022-12-07T10:29:22;100892.48;;;1.78;33.79
63339;BME280;47485;51.378;-1.342;2022-12-07T10:31:54;100883.92;;;2.23;32.40
63339;BME280;47485;51.378;-1.342;2022-12-07T10:34:24;100886.15;;;-2.96;37.27
63339;BME280;47485;51.378;-1.342;2022-12-07T10:36:52;100875.25;;;1.77;32.97
63339;BME280;47485;51.378;-1.342;2022-12-07T10:39:22;100875.88;;;-0.83;34.41
63339;BME280;47485;51.378;-1.342;2022-12-07T10:41:54;100869.28;;;2.24;32.52
63339;BME280;47485;51.378;-1.342;2022-12-07T10:44:23;100866.49;;;2.49;31.74
63339;BME280;47485;51.378;-1.342;2022-12-07T10:47:04;100862.23;;;1.53;33.07
63339;BME280;47485;51.378;-1.342;2022-12-07T10:50:02;100860.88;;;1.53;33.17
63339;BME280;47485;51.378;-1.342;2022-12-07T10:52:42;100864.21;;;-5.24;39.04
63339;BME280;47485;51.378;-1.342;2022-12-07T10:55:18;100855.30;;;2.30;33.50
63339;BME280;47485;51.378;-1.342;2022-12-07T10:58:00;100861.18;;;-1.43;36.34
63339;BME280;47485;51.378;-1.342;2022-12-07T11:00:34;100859.70;;;-1.00;35.65
63339;BME280;47485;51.378;-1.342;2022-12-07T11:03:36;100856.70;;;-2.13;36.77
63339;BME280;47485;51.378;-1.342;2022-12-07T11:06:16;100849.65;;;2.44;33.88
63339;BME280;47485;51.378;-1.342;2022-12-07T11:09:00;100847.08;;;1.32;33.92
63339;BME280;47485;51.378;-1.342;2022-12-07T11:11:34;100851.13;;;-0.61;36.01
63339;BME280;47485;51.378;-1.342;2022-12-07T11:14:13;100841.16;;;2.56;33.46
63339;BME280;47485;51.378;-1.342;2022-12-07T11:16:52;100840.80;;;1.53;33.95
63339;BME280;47485;51.378;-1.342;2022-12-07T11:19:34;100841.68;;;1.11;34.12
63339;BME280;47485;51.378;-1.342;2022-12-07T11:22:13;100836.98;;;-1.27;35.46
63339;BME280;47485;51.378;-1.342;2022-12-07T11:24:48;100831.75;;;1.57;33.44
63339;BME280;47485;51.378;-1.342;2022-12-07T11:27:24;100836.45;;;-0.92;36.53
63339;BME280;47485;51.378;-1.342;2022-12-07T11:30:10;100823.81;;;1.17;34.85
63339;BME280;47485;51.378;-1.342;2022-12-07T11:32:47;100821.92;;;0.83;35.62
63339;BME280;47485;51.378;-1.342;2022-12-07T11:35:23;100822.86;;;1.28;37.35
63339;BME280;47485;51.378;-1.342;2022-12-07T11:37:57;100816.80;;;-0.06;36.82
63339;BME280;47485;51.378;-1.342;2022-12-07T11:40:28;100808.10;;;2.17;34.59
63339;BME280;47485;51.378;-1.342;2022-12-07T11:43:01;100805.14;;;1.43;34.75
63339;BME280;47485;51.378;-1.342;2022-12-07T11:45:31;100800.63;;;2.28;34.98
63339;BME280;47485;51.378;-1.342;2022-12-07T11:48:00;100797.86;;;2.24;34.43
63339;BME280;47485;51.378;-1.342;2022-12-07T11:50:33;100802.87;;;-0.55;35.60
63339;BME280;47485;51.378;-1.342;2022-12-07T11:53:03;100797.11;;;0.49;34.24
63339;BME280;47485;51.378;-1.342;2022-12-07T11:55:41;100799.20;;;0.60;34.95
63339;BME280;47485;51.378;-1.342;2022-12-07T11:58:18;100789.87;;;0.26;35.51
63339;BME280;47485;51.378;-1.342;2022-12-07T12:00:48;100790.63;;;0.47;34.74
63339;BME280;47485;51.378;-1.342;2022-12-07T12:03:21;100786.91;;;-1.35;34.93
63339;BME280;47485;51.378;-1.342;2022-12-07T12:05:51;100782.36;;;0.60;33.70
63339;BME280;47485;51.378;-1.342;2022-12-07T12:08:21;100782.44;;;-2.16;35.42
63339;BME280;47485;51.378;-1.342;2022-12-07T12:10:55;100778.71;;;-2.12;36.91
63339;BME280;47485;51.378;-1.342;2022-12-07T12:13:39;100785.31;;;-4.32;38.34
63339;BME280;47485;51.378;-1.342;2022-12-07T12:16:32;100784.29;;;-2.04;37.04
63339;BME280;47485;51.378;-1.342;2022-12-07T12:19:19;100770.15;;;0.66;34.75
63339;BME280;47485;51.378;-1.342;2022-12-07T12:21:54;100777.31;;;-2.30;36.76
63339;BME280;47485;51.378;-1.342;2022-12-07T12:24:26;100773.09;;;-2.78;37.85
63339;BME280;47485;51.378;-1.342;2022-12-07T12:27:01;100768.87;;;-4.36;39.56
63339;BME280;47485;51.378;-1.342;2022-12-07T12:29:32;100757.51;;;-0.44;35.93
63339;BME280;47485;51.378;-1.342;2022-12-07T12:32:15;100750.63;;;-1.13;36.06
63339;BME280;47485;51.378;-1.342;2022-12-07T12:35:01;100744.31;;;2.95;32.55
63339;BME280;47485;51.378;-1.342;2022-12-07T12:37:41;100740.95;;;2.20;32.31
63339;BME280;47485;51.378;-1.342;2022-12-07T12:40:43;100736.99;;;3.64;30.91
63339;BME280;47485;51.378;-1.342;2022-12-07T12:43:49;100738.41;;;1.25;33.35
63339;BME280;47485;51.378;-1.342;2022-12-07T12:48:29;100734.10;;;0.15;34.35
63339;BME280;47485;51.378;-1.342;2022-12-07T12:51:37;100724.37;;;2.00;32.90
63339;BME280;47485;51.378;-1.342;2022-12-07T12:54:04;100720.81;;;2.12;32.88
63339;BME280;47485;51.378;-1.342;2022-12-07T12:56:40;100721.08;;;0.92;33.99
63339;BME280;47485;51.378;-1.342;2022-12-07T12:59:23;100713.47;;;3.10;32.20
63339;BME280;47485;51.378;-1.342;2022-12-07T13:01:50;100708.22;;;1.07;34.98
63339;BME280;47485;51.378;-1.342;2022-12-07T13:04:30;100701.81;;;2.11;33.09
63339;BME280;47485;51.378;-1.342;2022-12-07T13:07:00;100702.62;;;-2.37;36.28
63339;BME280;47485;51.378;-1.342;2022-12-07T13:09:29;100696.03;;;-0.50;35.50